sensor_id;sensor_type;location;lat;lon;timestamp;P1;durP1;ratioP1;P2;durP2;ratioP2
52124;SDS011;38119;52.710;6.398;2022-12-29T00:01:23;7.82;;;4.80;;
52124;SDS011;38119;52.710;6.398;2022-12-29T00:03:48;9.18;;;5.13;;
52124;SDS011;38119;52.710;6.398;2022-12-29T00:06:14;6.03;;;4.63;;
52124;SDS011;38119;52.710;6.398;2022-12-29T00:08:39;6.85;;;4.70;;
52124;SDS011;38119;52.710;6.398;2022-12-29T00:11:10;6.88;;;4.65;;
52124;SDS011;38119;52.710;6.398;2022-12-29T00:13:40;9.75;;;5.15;;
52124;SDS011;38119;52.710;6.398;2022-12-29T00:16:25;7.50;;;4.30;;
52124;SDS011;38119;52.710;6.398;2022-12-29T00:18:51;7.05;;;4.90;;
52124;SDS011;38119;52.710;6.398;2022-12-29T00:21:17;6.53;;;4.88;;
52124;SDS011;38119;52.710;6.398;2022-12-29T00:24:03;7.78;;;4.85;;
52124;SDS011;38119;52.710;6.398;2022-12-29T00:26:49;6.63;;;4.57;;
52124;SDS011;38119;52.710;6.398;2022-12-29T00:29:38;5.72;;;4.45;;
52124;SDS011;38119;52.710;6.398;2022-12-29T00:32:22;7.55;;;4.57;;
52124;SDS011;38119;52.710;6.398;2022-12-29T00:35:09;7.75;;;4.90;;
52124;SDS011;38119;52.710;6.398;2022-12-29T00:37:45;7.53;;;4.80;;
52124;SDS011;38119;52.710;6.398;2022-12-29T00:40:30;7.15;;;4.53;;
52124;SDS011;38119;52.710;6.398;2022-12-29T00:43:14;6.25;;;4.53;;
52124;SDS011;38119;52.710;6.398;2022-12-29T00:45:58;6.75;;;4.28;;
52124;SDS011;38119;52.710;6.398;2022-12-29T00:48:24;8.90;;;4.28;;
52124;SDS011;38119;52.710;6.398;2022-12-29T00:51:08;6.50;;;4.25;;
52124;SDS011;38119;52.710;6.398;2022-12-29T00:53:34;5.53;;;4.03;;
52124;SDS011;38119;52.710;6.398;2022-12-29T00:55:59;7.25;;;4.30;;
52124;SDS011;38119;52.710;6.398;2022-12-29T00:58:29;5.63;;;4.05;;
52124;SDS011;38119;52.710;6.398;2022-12-29T01:01:05;5.18;;;3.60;;
52124;SDS011;38119;52.710;6.398;2022-12-29T01:03:33;6.93;;;3.90;;
52124;SDS011;38119;52.710;6.398;2022-12-29T01:06:00;5.85;;;3.80;;
52124;SDS011;38119;52.710;6.398;2022-12-29T01:08:30;6.03;;;4.10;;
52124;SDS011;38119;52.710;6.398;2022-12-29T01:13:26;4.68;;;3.53;;
52124;SDS011;38119;52.710;6.398;2022-12-29T01:15:52;5.63;;;3.47;;
52124;SDS011;38119;52.710;6.398;2022-12-29T01:18:18;7.78;;;3.97;;
52124;SDS011;38119;52.710;6.398;2022-12-29T01:20:44;5.68;;;3.55;;
52124;SDS011;38119;52.710;6.398;2022-12-29T01:23:10;5.15;;;3.40;;
52124;SDS011;38119;52.710;6.398;2022-12-29T01:25:35;7.05;;;3.65;;
52124;SDS011;38119;52.710;6.398;2022-12-29T01:28:01;5.82;;;3.58;;
52124;SDS011;38119;52.710;6.398;2022-12-29T01:30:27;5.47;;;3.25;;
52124;SDS011;38119;52.710;6.398;2022-12-29T01:32:52;5.40;;;3.63;;
52124;SDS011;38119;52.710;6.398;2022-12-29T01:35:18;5.55;;;3.72;;
52124;SDS011;38119;52.710;6.398;2022-12-29T01:37:43;4.80;;;3.13;;
52124;SDS011;38119;52.710;6.398;2022-12-29T01:40:09;5.20;;;3.25;;
52124;SDS011;38119;52.710;6.398;2022-12-29T01:42:35;7.10;;;3.80;;
52124;SDS011;38119;52.710;6.398;2022-12-29T01:45:11;5.22;;;3.30;;
52124;SDS011;38119;52.710;6.398;2022-12-29T01:47:39;5.30;;;3.63;;
52124;SDS011;38119;52.710;6.398;2022-12-29T01:50:17;7.22;;;3.30;;
52124;SDS011;38119;52.710;6.398;2022-12-29T01:52:49;5.30;;;3.45;;
52124;SDS011;38119;52.710;6.398;2022-12-29T01:55:21;6.30;;;3.65;;
52124;SDS011;38119;52.710;6.398;2022-12-29T01:57:48;4.60;;;2.80;;
52124;SDS011;38119;52.710;6.398;2022-12-29T02:00:17;4.88;;;3.00;;
52124;SDS011;38119;52.710;6.398;2022-12-29T02:02:52;5.97;;;3.00;;
52124;SDS011;38119;52.710;6.398;2022-12-29T02:06:02;6.45;;;3.20;;
52124;SDS011;38119;52.710;6.398;2022-12-29T02:08:13;6.25;;;2.92;;
52124;SDS011;38119;52.710;6.398;2022-12-29T02:10:39;5.43;;;3.22;;
52124;SDS011;38119;52.710;6.398;2022-12-29T02:13:07;6.43;;;2.80;;
52124;SDS011;38119;52.710;6.398;2022-12-29T02:15:54;3.42;;;2.63;;
52124;SDS011;38119;52.710;6.398;2022-12-29T02:18:31;4.35;;;3.05;;
52124;SDS011;38119;52.710;6.398;2022-12-29T02:32:50;4.63;;;2.90;;
52124;SDS011;38119;52.710;6.398;2022-12-29T02:38:05;3.85;;;2.38;;
52124;SDS011;38119;52.710;6.398;2022-12-29T02:40:53;6.15;;;2.40;;
52124;SDS011;38119;52.710;6.398;2022-12-29T02:46:10;6.53;;;2.47;;
52124;SDS011;38119;52.710;6.398;2022-12-29T02:48:46;4.55;;;2.33;;
52124;SDS011;38119;52.710;6.398;2022-12-29T02:51:35;3.25;;;2.42;;
52124;SDS011;38119;52.710;6.398;2022-12-29T02:54:11;4.47;;;2.30;;
52124;SDS011;38119;52.710;6.398;2022-12-29T02:56:55;6.10;;;2.47;;
52124;SDS011;38119;52.710;6.398;2022-12-29T02:59:21;3.63;;;2.30;;
52124;SDS011;38119;52.710;6.398;2022-12-29T03:02:09;3.40;;;2.25;;
52124;SDS011;38119;52.710;6.398;2022-12-29T03:11:00;2.67;;;1.80;;
52124;SDS011;38119;52.710;6.398;2022-12-29T03:13:34;3.40;;;2.22;;
52124;SDS011;38119;52.710;6.398;2022-12-29T03:19:26;6.32;;;1.92;;
52124;SDS011;38119;52.710;6.398;2022-12-29T03:21:56;3.53;;;1.88;;
52124;SDS011;38119;52.710;6.398;2022-12-29T03:24:51;1.90;;;1.60;;
52124;SDS011;38119;52.710;6.398;2022-12-29T03:27:30;4.30;;;1.98;;
52124;SDS011;38119;52.710;6.398;2022-12-29T03:30:07;2.45;;;1.77;;
52124;SDS011;38119;52.710;6.398;2022-12-29T03:32:48;2.63;;;1.85;;
52124;SDS011;38119;52.710;6.398;2022-12-29T03:35:20;6.22;;;1.75;;
52124;SDS011;38119;52.710;6.398;2022-12-29T03:37:57;4.38;;;1.95;;
52124;SDS011;38119;52.710;6.398;2022-12-29T03:40:27;5.32;;;1.80;;
52124;SDS011;38119;52.710;6.398;2022-12-29T03:42:55;6.25;;;2.10;;
52124;SDS011;38119;52.710;6.398;2022-12-29T03:45:21;5.43;;;1.90;;
52124;SDS011;38119;52.710;6.398;2022-12-29T03:47:47;6.22;;;1.75;;
52124;SDS011;38119;52.710;6.398;2022-12-29T03:50:12;4.50;;;1.80;;
52124;SDS011;38119;52.710;6.398;2022-12-29T03:52:38;4.63;;;1.90;;
52124;SDS011;38119;52.710;6.398;2022-12-29T03:55:04;7.47;;;1.80;;
52124;SDS011;38119;52.710;6.398;2022-12-29T03:57:30;5.07;;;1.80;;
52124;SDS011;38119;52.710;6.398;2022-12-29T03:59:56;7.57;;;1.65;;
52124;SDS011;38119;52.710;6.398;2022-12-29T04:02:21;5.45;;;2.13;;
52124;SDS011;38119;52.710;6.398;2022-12-29T04:04:48;6.38;;;1.98;;
52124;SDS011;38119;52.710;6.398;2022-12-29T04:07:14;4.20;;;1.65;;
52124;SDS011;38119;52.710;6.398;2022-12-29T04:09:40;7.50;;;1.83;;
52124;SDS011;38119;52.710;6.398;2022-12-29T04:12:05;3.15;;;1.27;;
52124;SDS011;38119;52.710;6.398;2022-12-29T04:14:31;4.57;;;1.50;;
52124;SDS011;38119;52.710;6.398;2022-12-29T04:16:57;7.68;;;1.58;;
52124;SDS011;38119;52.710;6.398;2022-12-29T04:19:22;4.93;;;1.60;;
52124;SDS011;38119;52.710;6.398;2022-12-29T04:21:48;8.27;;;1.42;;
52124;SDS011;38119;52.710;6.398;2022-12-29T04:24:13;4.97;;;1.15;;
52124;SDS011;38119;52.710;6.398;2022-12-29T04:26:39;3.47;;;1.40;;
52124;SDS011;38119;52.710;6.398;2022-12-29T04:29:05;4.80;;;1.20;;
52124;SDS011;38119;52.710;6.398;2022-12-29T04:31:31;4.68;;;1.30;;
52124;SDS011;38119;52.710;6.398;2022-12-29T04:33:56;5.95;;;1.33;;
52124;SDS011;38119;52.710;6.398;2022-12-29T04:36:22;4.70;;;1.40;;
52124;SDS011;38119;52.710;6.398;2022-12-29T04:38:48;4.43;;;1.20;;
52124;SDS011;38119;52.710;6.398;2022-12-29T04:41:14;5.65;;;1.40;;
52124;SDS011;38119;52.710;6.398;2022-12-29T04:43:39;7.32;;;1.70;;
52124;SDS011;38119;52.710;6.398;2022-12-29T04:46:05;9.80;;;1.60;;
52124;SDS011;38119;52.710;6.398;2022-12-29T04:48:31;9.35;;;1.88;;
52124;SDS011;38119;52.710;6.398;2022-12-29T04:50:57;6.60;;;1.52;;
52124;SDS011;38119;52.710;6.398;2022-12-29T04:53:22;6.95;;;1.52;;
52124;SDS011;38119;52.710;6.398;2022-12-29T04:55:49;6.18;;;1.50;;
52124;SDS011;38119;52.710;6.398;2022-12-29T04:58:18;7.38;;;1.10;;
52124;SDS011;38119;52.710;6.398;2022-12-29T05:00:44;4.93;;;1.58;;
52124;SDS011;38119;52.710;6.398;2022-12-29T05:03:10;8.93;;;1.50;;
52124;SDS011;38119;52.710;6.398;2022-12-29T05:05:36;4.80;;;1.38;;
52124;SDS011;38119;52.710;6.398;2022-12-29T05:08:02;6.22;;;1.45;;
52124;SDS011;38119;52.710;6.398;2022-12-29T05:10:27;9.02;;;1.40;;
52124;SDS011;38119;52.710;6.398;2022-12-29T05:12:53;6.90;;;1.30;;
52124;SDS011;38119;52.710;6.398;2022-12-29T05:15:18;4.00;;;1.25;;
52124;SDS011;38119;52.710;6.398;2022-12-29T05:17:44;5.10;;;1.50;;
52124;SDS011;38119;52.710;6.398;2022-12-29T05:20:10;6.00;;;1.60;;
52124;SDS011;38119;52.710;6.398;2022-12-29T05:22:36;6.80;;;1.50;;
52124;SDS011;38119;52.710;6.398;2022-12-29T05:25:02;7.72;;;1.50;;
52124;SDS011;38119;52.710;6.398;2022-12-29T05:27:27;5.38;;;1.50;;
52124;SDS011;38119;52.710;6.398;2022-12-29T05:29:53;6.18;;;1.55;;
52124;SDS011;38119;52.710;6.398;2022-12-29T05:32:19;5.60;;;1.80;;
52124;SDS011;38119;52.710;6.398;2022-12-29T05:34:44;7.10;;;2.40;;
52124;SDS011;38119;52.710;6.398;2022-12-29T05:37:10;4.45;;;1.73;;
52124;SDS011;38119;52.710;6.398;2022-12-29T05:39:36;5.03;;;1.60;;
52124;SDS011;38119;52.710;6.398;2022-12-29T05:42:01;7.03;;;1.65;;
52124;SDS011;38119;52.710;6.398;2022-12-29T05:44:27;6.72;;;1.73;;
52124;SDS011;38119;52.710;6.398;2022-12-29T05:46:53;6.60;;;2.05;;
52124;SDS011;38119;52.710;6.398;2022-12-29T05:49:18;5.40;;;1.90;;
52124;SDS011;38119;52.710;6.398;2022-12-29T05:51:44;7.40;;;1.70;;
52124;SDS011;38119;52.710;6.398;2022-12-29T05:54:10;8.00;;;1.65;;
52124;SDS011;38119;52.710;6.398;2022-12-29T05:56:37;4.60;;;1.30;;
52124;SDS011;38119;52.710;6.398;2022-12-29T05:59:02;8.73;;;1.92;;
52124;SDS011;38119;52.710;6.398;2022-12-29T06:01:28;9.18;;;2.05;;
52124;SDS011;38119;52.710;6.398;2022-12-29T06:03:53;7.00;;;1.38;;
52124;SDS011;38119;52.710;6.398;2022-12-29T06:06:19;6.78;;;1.42;;
52124;SDS011;38119;52.710;6.398;2022-12-29T06:08:45;7.68;;;1.67;;
52124;SDS011;38119;52.710;6.398;2022-12-29T06:11:10;6.28;;;1.33;;
52124;SDS011;38119;52.710;6.398;2022-12-29T06:13:36;7.82;;;1.58;;
52124;SDS011;38119;52.710;6.398;2022-12-29T06:16:02;7.03;;;1.85;;
52124;SDS011;38119;52.710;6.398;2022-12-29T06:18:28;11.38;;;1.65;;
52124;SDS011;38119;52.710;6.398;2022-12-29T06:20:54;7.28;;;1.38;;
52124;SDS011;38119;52.710;6.398;2022-12-29T06:23:19;5.50;;;1.25;;
52124;SDS011;38119;52.710;6.398;2022-12-29T06:25:46;7.45;;;1.48;;
52124;SDS011;38119;52.710;6.398;2022-12-29T06:28:13;10.80;;;1.73;;
52124;SDS011;38119;52.710;6.398;2022-12-29T06:30:39;12.00;;;1.55;;
52124;SDS011;38119;52.710;6.398;2022-12-29T06:33:04;5.30;;;1.45;;
52124;SDS011;38119;52.710;6.398;2022-12-29T06:35:30;5.43;;;1.60;;
52124;SDS011;38119;52.710;6.398;2022-12-29T06:37:56;4.95;;;1.63;;
52124;SDS011;38119;52.710;6.398;2022-12-29T06:40:21;9.90;;;1.90;;
52124;SDS011;38119;52.710;6.398;2022-12-29T06:42:50;6.40;;;1.60;;
52124;SDS011;38119;52.710;6.398;2022-12-29T06:45:15;9.13;;;2.03;;
52124;SDS011;38119;52.710;6.398;2022-12-29T06:47:41;8.20;;;1.70;;
52124;SDS011;38119;52.710;6.398;2022-12-29T06:50:07;5.65;;;1.67;;
52124;SDS011;38119;52.710;6.398;2022-12-29T06:52:33;4.60;;;1.48;;
52124;SDS011;38119;52.710;6.398;2022-12-29T06:54:58;10.32;;;2.00;;
52124;SDS011;38119;52.710;6.398;2022-12-29T06:57:24;5.07;;;1.50;;
52124;SDS011;38119;52.710;6.398;2022-12-29T06:59:51;12.23;;;2.28;;
52124;SDS011;38119;52.710;6.398;2022-12-29T07:02:17;8.55;;;1.60;;
52124;SDS011;38119;52.710;6.398;2022-12-29T07:04:46;11.65;;;1.92;;
52124;SDS011;38119;52.710;6.398;2022-12-29T07:07:11;11.43;;;2.22;;
52124;SDS011;38119;52.710;6.398;2022-12-29T07:09:37;9.77;;;2.13;;
52124;SDS011;38119;52.710;6.398;2022-12-29T07:12:03;11.25;;;2.15;;
52124;SDS011;38119;52.710;6.398;2022-12-29T07:14:28;11.57;;;2.10;;
52124;SDS011;38119;52.710;6.398;2022-12-29T07:16:54;8.38;;;2.20;;
52124;SDS011;38119;52.710;6.398;2022-12-29T07:19:19;8.50;;;2.30;;
52124;SDS011;38119;52.710;6.398;2022-12-29T07:21:45;11.27;;;1.90;;
52124;SDS011;38119;52.710;6.398;2022-12-29T07:24:11;9.00;;;1.90;;
52124;SDS011;38119;52.710;6.398;2022-12-29T07:26:36;10.02;;;1.80;;
52124;SDS011;38119;52.710;6.398;2022-12-29T07:29:03;8.43;;;1.65;;
52124;SDS011;38119;52.710;6.398;2022-12-29T07:31:29;7.75;;;1.70;;
52124;SDS011;38119;52.710;6.398;2022-12-29T07:33:55;8.60;;;2.10;;
52124;SDS011;38119;52.710;6.398;2022-12-29T07:36:21;13.95;;;2.22;;
52124;SDS011;38119;52.710;6.398;2022-12-29T07:38:46;11.23;;;2.92;;
52124;SDS011;38119;52.710;6.398;2022-12-29T07:41:12;11.38;;;2.28;;
52124;SDS011;38119;52.710;6.398;2022-12-29T07:43:38;11.10;;;2.10;;
52124;SDS011;38119;52.710;6.398;2022-12-29T07:46:03;9.48;;;1.60;;
52124;SDS011;38119;52.710;6.398;2022-12-29T07:48:29;10.55;;;1.85;;
52124;SDS011;38119;52.710;6.398;2022-12-29T07:50:55;9.50;;;1.80;;
52124;SDS011;38119;52.710;6.398;2022-12-29T07:53:20;9.55;;;1.90;;
52124;SDS011;38119;52.710;6.398;2022-12-29T07:55:46;10.60;;;2.10;;
52124;SDS011;38119;52.710;6.398;2022-12-29T07:58:12;10.38;;;2.00;;
52124;SDS011;38119;52.710;6.398;2022-12-29T08:00:37;13.43;;;2.08;;
52124;SDS011;38119;52.710;6.398;2022-12-29T08:03:03;16.90;;;2.00;;
52124;SDS011;38119;52.710;6.398;2022-12-29T08:05:30;10.30;;;2.40;;
52124;SDS011;38119;52.710;6.398;2022-12-29T08:07:57;13.70;;;2.30;;
52124;SDS011;38119;52.710;6.398;2022-12-29T08:10:23;13.35;;;2.67;;
52124;SDS011;38119;52.710;6.398;2022-12-29T08:12:49;13.02;;;2.33;;
52124;SDS011;38119;52.710;6.398;2022-12-29T08:15:15;12.00;;;3.15;;
52124;SDS011;38119;52.710;6.398;2022-12-29T08:17:40;12.35;;;2.42;;
52124;SDS011;38119;52.710;6.398;2022-12-29T08:20:06;9.90;;;2.30;;
52124;SDS011;38119;52.710;6.398;2022-12-29T08:22:32;12.90;;;2.97;;
52124;SDS011;38119;52.710;6.398;2022-12-29T08:24:58;13.35;;;2.30;;
52124;SDS011;38119;52.710;6.398;2022-12-29T08:27:23;13.45;;;2.35;;
52124;SDS011;38119;52.710;6.398;2022-12-29T08:29:50;12.70;;;2.17;;
52124;SDS011;38119;52.710;6.398;2022-12-29T08:32:16;13.15;;;2.72;;
52124;SDS011;38119;52.710;6.398;2022-12-29T08:34:41;14.48;;;2.30;;
52124;SDS011;38119;52.710;6.398;2022-12-29T08:37:07;10.75;;;2.30;;
52124;SDS011;38119;52.710;6.398;2022-12-29T08:39:33;12.52;;;2.55;;
52124;SDS011;38119;52.710;6.398;2022-12-29T08:41:59;9.40;;;1.85;;
52124;SDS011;38119;52.710;6.398;2022-12-29T08:44:25;12.60;;;1.90;;
52124;SDS011;38119;52.710;6.398;2022-12-29T08:46:50;12.68;;;2.13;;
52124;SDS011;38119;52.710;6.398;2022-12-29T08:49:16;12.32;;;2.20;;
52124;SDS011;38119;52.710;6.398;2022-12-29T08:51:41;9.02;;;2.30;;
52124;SDS011;38119;52.710;6.398;2022-12-29T08:54:07;12.38;;;2.35;;
52124;SDS011;38119;52.710;6.398;2022-12-29T08:56:33;10.55;;;1.90;;
52124;SDS011;38119;52.710;6.398;2022-12-29T08:58:58;10.32;;;2.10;;
52124;SDS011;38119;52.710;6.398;2022-12-29T09:01:24;11.88;;;2.05;;
52124;SDS011;38119;52.710;6.398;2022-12-29T09:03:50;10.10;;;2.45;;
52124;SDS011;38119;52.710;6.398;2022-12-29T09:06:16;14.57;;;2.20;;
52124;SDS011;38119;52.710;6.398;2022-12-29T09:08:42;11.50;;;2.38;;
52124;SDS011;38119;52.710;6.398;2022-12-29T09:11:09;13.57;;;1.92;;
52124;SDS011;38119;52.710;6.398;2022-12-29T09:13:36;13.45;;;2.50;;
52124;SDS011;38119;52.710;6.398;2022-12-29T09:16:02;10.95;;;2.35;;
52124;SDS011;38119;52.710;6.398;2022-12-29T09:18:28;10.73;;;1.83;;
52124;SDS011;38119;52.710;6.398;2022-12-29T09:20:57;19.20;;;2.45;;
52124;SDS011;38119;52.710;6.398;2022-12-29T09:23:27;12.85;;;2.22;;
52124;SDS011;38119;52.710;6.398;2022-12-29T09:25:53;7.70;;;1.80;;
52124;SDS011;38119;52.710;6.398;2022-12-29T09:28:19;9.68;;;2.40;;
52124;SDS011;38119;52.710;6.398;2022-12-29T09:30:45;10.10;;;2.75;;
52124;SDS011;38119;52.710;6.398;2022-12-29T09:33:11;6.57;;;2.08;;
52124;SDS011;38119;52.710;6.398;2022-12-29T09:35:36;9.52;;;2.72;;
52124;SDS011;38119;52.710;6.398;2022-12-29T09:38:02;8.73;;;1.92;;
52124;SDS011;38119;52.710;6.398;2022-12-29T09:40:31;9.73;;;2.38;;
52124;SDS011;38119;52.710;6.398;2022-12-29T09:45:47;9.55;;;2.20;;
52124;SDS011;38119;52.710;6.398;2022-12-29T09:48:23;8.88;;;2.22;;
52124;SDS011;38119;52.710;6.398;2022-12-29T09:50:56;11.60;;;1.95;;
52124;SDS011;38119;52.710;6.398;2022-12-29T09:53:27;9.18;;;2.30;;
52124;SDS011;38119;52.710;6.398;2022-12-29T09:55:58;9.63;;;2.60;;
52124;SDS011;38119;52.710;6.398;2022-12-29T09:58:44;9.15;;;2.53;;
52124;SDS011;38119;52.710;6.398;2022-12-29T10:02:44;10.55;;;1.95;;
52124;SDS011;38119;52.710;6.398;2022-12-29T10:05:46;13.63;;;2.20;;
52124;SDS011;38119;52.710;6.398;2022-12-29T10:14:50;11.60;;;2.28;;
52124;SDS011;38119;52.710;6.398;2022-12-29T10:20:38;9.35;;;2.20;;
52124;SDS011;38119;52.710;6.398;2022-12-29T10:26:03;8.88;;;1.85;;
52124;SDS011;38119;52.710;6.398;2022-12-29T10:28:43;9.27;;;2.22;;
52124;SDS011;38119;52.710;6.398;2022-12-29T10:34:47;10.48;;;2.85;;
52124;SDS011;38119;52.710;6.398;2022-12-29T10:40:32;8.73;;;2.13;;
52124;SDS011;38119;52.710;6.398;2022-12-29T10:43:37;13.23;;;2.40;;
52124;SDS011;38119;52.710;6.398;2022-12-29T10:46:27;9.45;;;2.00;;
52124;SDS011;38119;52.710;6.398;2022-12-29T10:48:58;8.13;;;2.17;;
52124;SDS011;38119;52.710;6.398;2022-12-29T10:51:36;7.68;;;1.83;;
52124;SDS011;38119;52.710;6.398;2022-12-29T10:54:15;9.75;;;2.05;;
52124;SDS011;38119;52.710;6.398;2022-12-29T10:56:53;11.85;;;1.90;;
52124;SDS011;38119;52.710;6.398;2022-12-29T10:59:50;7.07;;;1.90;;
52124;SDS011;38119;52.710;6.398;2022-12-29T11:05:32;8.63;;;2.22;;
52124;SDS011;38119;52.710;6.398;2022-12-29T11:11:26;8.63;;;2.10;;
52124;SDS011;38119;52.710;6.398;2022-12-29T11:13:58;10.43;;;2.13;;
52124;SDS011;38119;52.710;6.398;2022-12-29T11:16:32;6.63;;;1.90;;
52124;SDS011;38119;52.710;6.398;2022-12-29T11:19:00;7.72;;;1.85;;
52124;SDS011;38119;52.710;6.398;2022-12-29T11:23:56;9.27;;;2.47;;
52124;SDS011;38119;52.710;6.398;2022-12-29T11:26:26;11.77;;;2.38;;
52124;SDS011;38119;52.710;6.398;2022-12-29T11:31:41;12.60;;;2.50;;
52124;SDS011;38119;52.710;6.398;2022-12-29T11:34:18;9.93;;;2.42;;
52124;SDS011;38119;52.710;6.398;2022-12-29T11:36:45;15.57;;;2.75;;
52124;SDS011;38119;52.710;6.398;2022-12-29T11:39:29;13.88;;;2.50;;
52124;SDS011;38119;52.710;6.398;2022-12-29T11:41:58;10.65;;;2.28;;
52124;SDS011;38119;52.710;6.398;2022-12-29T11:44:26;12.85;;;2.92;;
52124;SDS011;38119;52.710;6.398;2022-12-29T11:46:52;17.52;;;2.90;;
52124;SDS011;38119;52.710;6.398;2022-12-29T11:49:22;12.50;;;2.60;;
52124;SDS011;38119;52.710;6.398;2022-12-29T11:51:50;12.65;;;3.03;;
52124;SDS011;38119;52.710;6.398;2022-12-29T11:54:22;13.27;;;2.65;;
52124;SDS011;38119;52.710;6.398;2022-12-29T11:56:51;7.43;;;2.28;;
52124;SDS011;38119;52.710;6.398;2022-12-29T12:01:54;15.82;;;2.80;;
52124;SDS011;38119;52.710;6.398;2022-12-29T12:04:26;18.38;;;2.63;;
52124;SDS011;38119;52.710;6.398;2022-12-29T12:07:01;17.65;;;3.22;;
52124;SDS011;38119;52.710;6.398;2022-12-29T12:09:45;16.58;;;2.78;;
52124;SDS011;38119;52.710;6.398;2022-12-29T12:14:56;15.05;;;3.13;;
52124;SDS011;38119;52.710;6.398;2022-12-29T12:17:31;15.60;;;3.17;;
52124;SDS011;38119;52.710;6.398;2022-12-29T12:20:10;9.05;;;2.25;;
52124;SDS011;38119;52.710;6.398;2022-12-29T12:22:54;15.27;;;1.50;;
52124;SDS011;38119;52.710;6.398;2022-12-29T12:25:40;9.93;;;1.58;;
52124;SDS011;38119;52.710;6.398;2022-12-29T12:28:28;7.82;;;1.92;;
52124;SDS011;38119;52.710;6.398;2022-12-29T12:31:02;10.23;;;2.28;;
52124;SDS011;38119;52.710;6.398;2022-12-29T12:33:44;18.02;;;3.28;;
52124;SDS011;38119;52.710;6.398;2022-12-29T12:36:28;16.85;;;2.92;;
52124;SDS011;38119;52.710;6.398;2022-12-29T12:39:21;13.52;;;3.28;;
52124;SDS011;38119;52.710;6.398;2022-12-29T12:53:16;17.17;;;3.42;;
52124;SDS011;38119;52.710;6.398;2022-12-29T12:55:58;18.70;;;3.33;;
52124;SDS011;38119;52.710;6.398;2022-12-29T13:02:09;19.08;;;3.25;;
52124;SDS011;38119;52.710;6.398;2022-12-29T13:04:53;15.32;;;2.90;;
52124;SDS011;38119;52.710;6.398;2022-12-29T13:10:58;13.32;;;3.22;;
52124;SDS011;38119;52.710;6.398;2022-12-29T13:16:29;15.80;;;3.28;;
52124;SDS011;38119;52.710;6.398;2022-12-29T13:22:09;15.35;;;2.58;;
52124;SDS011;38119;52.710;6.398;2022-12-29T13:25:02;14.77;;;2.65;;
52124;SDS011;38119;52.710;6.398;2022-12-29T13:30:23;13.27;;;2.42;;
52124;SDS011;38119;52.710;6.398;2022-12-29T13:38:17;17.25;;;3.30;;
52124;SDS011;38119;52.710;6.398;2022-12-29T13:40:52;14.93;;;3.10;;
52124;SDS011;38119;52.710;6.398;2022-12-29T13:43:22;16.17;;;2.95;;
52124;SDS011;38119;52.710;6.398;2022-12-29T13:45:51;12.93;;;2.90;;
52124;SDS011;38119;52.710;6.398;2022-12-29T13:48:27;12.27;;;2.50;;
52124;SDS011;38119;52.710;6.398;2022-12-29T13:51:03;13.32;;;3.10;;
52124;SDS011;38119;52.710;6.398;2022-12-29T13:53:42;21.05;;;3.25;;
52124;SDS011;38119;52.710;6.398;2022-12-29T13:56:38;14.85;;;2.72;;
52124;SDS011;38119;52.710;6.398;2022-12-29T13:59:22;13.70;;;3.05;;
52124;SDS011;38119;52.710;6.398;2022-12-29T14:02:08;21.40;;;3.33;;
52124;SDS011;38119;52.710;6.398;2022-12-29T14:04:35;17.73;;;2.60;;
52124;SDS011;38119;52.710;6.398;2022-12-29T14:07:05;18.58;;;2.92;;
52124;SDS011;38119;52.710;6.398;2022-12-29T14:17:34;14.32;;;2.75;;
52124;SDS011;38119;52.710;6.398;2022-12-29T14:20:02;15.90;;;2.90;;
52124;SDS011;38119;52.710;6.398;2022-12-29T14:22:32;10.35;;;2.65;;
52124;SDS011;38119;52.710;6.398;2022-12-29T14:24:58;13.20;;;2.53;;
52124;SDS011;38119;52.710;6.398;2022-12-29T14:29:53;16.52;;;2.63;;
52124;SDS011;38119;52.710;6.398;2022-12-29T14:37:33;13.60;;;2.75;;
52124;SDS011;38119;52.710;6.398;2022-12-29T14:42:50;13.68;;;2.30;;
52124;SDS011;38119;52.710;6.398;2022-12-29T14:52:48;13.13;;;2.47;;
52124;SDS011;38119;52.710;6.398;2022-12-29T14:57:43;11.70;;;3.13;;
52124;SDS011;38119;52.710;6.398;2022-12-29T15:00:18;11.68;;;2.42;;
52124;SDS011;38119;52.710;6.398;2022-12-29T15:03:14;18.70;;;2.58;;
52124;SDS011;38119;52.710;6.398;2022-12-29T15:05:54;14.82;;;2.92;;
52124;SDS011;38119;52.710;6.398;2022-12-29T15:11:41;12.20;;;2.67;;
52124;SDS011;38119;52.710;6.398;2022-12-29T15:17:22;11.60;;;2.63;;
52124;SDS011;38119;52.710;6.398;2022-12-29T15:19:56;13.90;;;2.50;;
52124;SDS011;38119;52.710;6.398;2022-12-29T15:22:23;18.35;;;3.35;;
52124;SDS011;38119;52.710;6.398;2022-12-29T15:24:50;12.43;;;3.00;;
52124;SDS011;38119;52.710;6.398;2022-12-29T15:27:21;17.83;;;2.85;;
52124;SDS011;38119;52.710;6.398;2022-12-29T15:29:59;14.00;;;2.75;;
52124;SDS011;38119;52.710;6.398;2022-12-29T15:32:42;13.23;;;2.65;;
52124;SDS011;38119;52.710;6.398;2022-12-29T15:37:50;13.77;;;3.92;;
52124;SDS011;38119;52.710;6.398;2022-12-29T15:40:25;12.35;;;2.95;;
52124;SDS011;38119;52.710;6.398;2022-12-29T15:42:58;15.88;;;2.75;;
52124;SDS011;38119;52.710;6.398;2022-12-29T15:45:30;10.80;;;2.38;;
52124;SDS011;38119;52.710;6.398;2022-12-29T15:47:58;9.93;;;2.17;;
52124;SDS011;38119;52.710;6.398;2022-12-29T15:50:26;17.17;;;3.13;;
52124;SDS011;38119;52.710;6.398;2022-12-29T15:52:56;6.67;;;1.83;;
52124;SDS011;38119;52.710;6.398;2022-12-29T15:55:28;9.35;;;2.30;;
52124;SDS011;38119;52.710;6.398;2022-12-29T15:57:58;10.35;;;2.20;;
52124;SDS011;38119;52.710;6.398;2022-12-29T16:00:35;10.90;;;2.30;;
52124;SDS011;38119;52.710;6.398;2022-12-29T16:03:04;6.18;;;2.20;;
52124;SDS011;38119;52.710;6.398;2022-12-29T16:05:35;8.05;;;2.10;;
52124;SDS011;38119;52.710;6.398;2022-12-29T16:08:03;8.45;;;2.03;;
52124;SDS011;38119;52.710;6.398;2022-12-29T16:10:45;6.18;;;2.25;;
52124;SDS011;38119;52.710;6.398;2022-12-29T16:13:19;6.97;;;2.00;;
52124;SDS011;38119;52.710;6.398;2022-12-29T16:15:56;8.38;;;2.00;;
52124;SDS011;38119;52.710;6.398;2022-12-29T16:18:41;10.50;;;2.22;;
52124;SDS011;38119;52.710;6.398;2022-12-29T16:21:15;7.10;;;2.38;;
52124;SDS011;38119;52.710;6.398;2022-12-29T16:23:46;7.57;;;2.00;;
52124;SDS011;38119;52.710;6.398;2022-12-29T16:26:18;8.23;;;2.00;;
52124;SDS011;38119;52.710;6.398;2022-12-29T16:28:59;11.23;;;2.22;;
52124;SDS011;38119;52.710;6.398;2022-12-29T16:31:34;5.72;;;2.03;;
52124;SDS011;38119;52.710;6.398;2022-12-29T16:34:11;8.20;;;1.70;;
52124;SDS011;38119;52.710;6.398;2022-12-29T16:37:38;6.37;;;1.87;;
52124;SDS011;38119;52.710;6.398;2022-12-29T16:39:54;6.45;;;1.85;;
52124;SDS011;38119;52.710;6.398;2022-12-29T16:42:43;7.53;;;1.52;;
52124;SDS011;38119;52.710;6.398;2022-12-29T16:50:31;5.95;;;1.88;;
52124;SDS011;38119;52.710;6.398;2022-12-29T16:52:59;9.77;;;1.95;;
52124;SDS011;38119;52.710;6.398;2022-12-29T16:55:35;9.55;;;2.25;;
52124;SDS011;38119;52.710;6.398;2022-12-29T16:58:01;9.45;;;2.60;;
52124;SDS011;38119;52.710;6.398;2022-12-29T17:00:27;9.60;;;2.70;;
52124;SDS011;38119;52.710;6.398;2022-12-29T17:02:59;9.45;;;2.55;;
52124;SDS011;38119;52.710;6.398;2022-12-29T17:05:26;12.93;;;2.97;;
52124;SDS011;38119;52.710;6.398;2022-12-29T17:07:52;8.48;;;2.42;;
52124;SDS011;38119;52.710;6.398;2022-12-29T17:10:19;7.70;;;3.00;;
52124;SDS011;38119;52.710;6.398;2022-12-29T17:12:46;11.77;;;3.22;;
52124;SDS011;38119;52.710;6.398;2022-12-29T17:15:14;10.88;;;3.13;;
52124;SDS011;38119;52.710;6.398;2022-12-29T17:17:49;9.07;;;3.30;;
52124;SDS011;38119;52.710;6.398;2022-12-29T17:20:22;11.95;;;3.10;;
52124;SDS011;38119;52.710;6.398;2022-12-29T17:22:50;15.20;;;3.43;;
52124;SDS011;38119;52.710;6.398;2022-12-29T17:25:39;10.82;;;3.75;;
52124;SDS011;38119;52.710;6.398;2022-12-29T17:28:05;10.18;;;3.30;;
52124;SDS011;38119;52.710;6.398;2022-12-29T17:30:37;14.05;;;3.85;;